sensor_id;sensor_type;location;lat;lon;timestamp;P1;durP1;ratioP1;P2;durP2;ratioP2
10795;SDS011;5450;42.994;23.372;2023-03-22T00:03:52;7.87;;;7.00;;
10795;SDS011;5450;42.994;23.372;2023-03-22T00:06:20;8.77;;;7.97;;
10795;SDS011;5450;42.994;23.372;2023-03-22T00:08:51;7.63;;;7.03;;
10795;SDS011;5450;42.994;23.372;2023-03-22T00:11:19;8.67;;;7.90;;
10795;SDS011;5450;42.994;23.372;2023-03-22T00:13:48;8.60;;;7.90;;
10795;SDS011;5450;42.994;23.372;2023-03-22T00:16:20;7.93;;;7.23;;
10795;SDS011;5450;42.994;23.372;2023-03-22T00:18:50;8.80;;;8.07;;
10795;SDS011;5450;42.994;23.372;2023-03-22T00:27:31;8.50;;;7.77;;
10795;SDS011;5450;42.994;23.372;2023-03-22T00:30:00;9.03;;;8.20;;
10795;SDS011;5450;42.994;23.372;2023-03-22T00:32:32;8.47;;;7.77;;
10795;SDS011;5450;42.994;23.372;2023-03-22T00:35:01;7.60;;;7.00;;
10795;SDS011;5450;42.994;23.372;2023-03-22T00:37:30;6.20;;;5.80;;
10795;SDS011;5450;42.994;23.372;2023-03-22T00:39:58;5.40;;;5.03;;
10795;SDS011;5450;42.994;23.372;2023-03-22T00:42:25;5.87;;;5.27;;
10795;SDS011;5450;42.994;23.372;2023-03-22T00:44:52;4.70;;;4.40;;
10795;SDS011;5450;42.994;23.372;2023-03-22T00:47:22;4.83;;;4.53;;
10795;SDS011;5450;42.994;23.372;2023-03-22T00:49:50;5.37;;;4.97;;
10795;SDS011;5450;42.994;23.372;2023-03-22T00:52:17;4.90;;;4.60;;
10795;SDS011;5450;42.994;23.372;2023-03-22T00:54:45;4.67;;;4.37;;
10795;SDS011;5450;42.994;23.372;2023-03-22T00:57:13;4.47;;;4.20;;
10795;SDS011;5450;42.994;23.372;2023-03-22T01:02:40;4.23;;;3.93;;
10795;SDS011;5450;42.994;23.372;2023-03-22T01:05:11;4.60;;;4.30;;
10795;SDS011;5450;42.994;23.372;2023-03-22T01:07:43;4.17;;;3.87;;
10795;SDS011;5450;42.994;23.372;2023-03-22T01:10:15;4.53;;;4.23;;
10795;SDS011;5450;42.994;23.372;2023-03-22T01:18:54;3.70;;;3.50;;
10795;SDS011;5450;42.994;23.372;2023-03-22T01:21:22;4.40;;;4.03;;
10795;SDS011;5450;42.994;23.372;2023-03-22T01:23:52;4.53;;;4.23;;
10795;SDS011;5450;42.994;23.372;2023-03-22T01:26:23;4.30;;;3.93;;
10795;SDS011;5450;42.994;23.372;2023-03-22T01:28:50;4.20;;;3.90;;
10795;SDS011;5450;42.994;23.372;2023-03-22T01:31:18;3.83;;;3.57;;
10795;SDS011;5450;42.994;23.372;2023-03-22T01:40:48;3.80;;;3.60;;
10795;SDS011;5450;42.994;23.372;2023-03-22T01:43:18;4.10;;;3.90;;
10795;SDS011;5450;42.994;23.372;2023-03-22T01:45:47;4.10;;;3.80;;
10795;SDS011;5450;42.994;23.372;2023-03-22T01:48:23;4.60;;;4.30;;
10795;SDS011;5450;42.994;23.372;2023-03-22T01:50:55;4.77;;;4.47;;
10795;SDS011;5450;42.994;23.372;2023-03-22T01:53:31;4.87;;;4.57;;
10795;SDS011;5450;42.994;23.372;2023-03-22T01:56:03;4.33;;;4.13;;
10795;SDS011;5450;42.994;23.372;2023-03-22T02:01:23;5.53;;;5.03;;
10795;SDS011;5450;42.994;23.372;2023-03-22T02:03:52;4.63;;;4.33;;
10795;SDS011;5450;42.994;23.372;2023-03-22T02:06:26;4.50;;;4.10;;
10795;SDS011;5450;42.994;23.372;2023-03-22T02:08:54;4.47;;;4.20;;
10795;SDS011;5450;42.994;23.372;2023-03-22T02:11:26;4.07;;;3.80;;
10795;SDS011;5450;42.994;23.372;2023-03-22T02:16:52;3.50;;;3.20;;
10795;SDS011;5450;42.994;23.372;2023-03-22T02:19:49;4.03;;;3.80;;
10795;SDS011;5450;42.994;23.372;2023-03-22T02:22:46;3.43;;;3.23;;
10795;SDS011;5450;42.994;23.372;2023-03-22T02:25:31;3.07;;;2.87;;
10795;SDS011;5450;42.994;23.372;2023-03-22T02:28:21;3.10;;;2.90;;
10795;SDS011;5450;42.994;23.372;2023-03-22T02:31:01;2.30;;;2.20;;
10795;SDS011;5450;42.994;23.372;2023-03-22T02:37:28;3.07;;;2.87;;
10795;SDS011;5450;42.994;23.372;2023-03-22T02:40:13;3.03;;;2.53;;
10795;SDS011;5450;42.994;23.372;2023-03-22T02:42:48;3.23;;;3.03;;
10795;SDS011;5450;42.994;23.372;2023-03-22T02:45:25;3.80;;;3.50;;
10795;SDS011;5450;42.994;23.372;2023-03-22T02:48:00;3.20;;;3.00;;
10795;SDS011;5450;42.994;23.372;2023-03-22T02:50:37;2.57;;;2.43;;
10795;SDS011;5450;42.994;23.372;2023-03-22T02:53:14;2.80;;;2.70;;
10795;SDS011;5450;42.994;23.372;2023-03-22T02:55:47;3.67;;;2.80;;
10795;SDS011;5450;42.994;23.372;2023-03-22T02:58:21;2.23;;;2.13;;
10795;SDS011;5450;42.994;23.372;2023-03-22T03:00:52;2.10;;;2.00;;
10795;SDS011;5450;42.994;23.372;2023-03-22T03:03:23;1.67;;;1.60;;
10795;SDS011;5450;42.994;23.372;2023-03-22T03:05:55;1.97;;;1.87;;
10795;SDS011;5450;42.994;23.372;2023-03-22T03:08:26;1.90;;;1.80;;
10795;SDS011;5450;42.994;23.372;2023-03-22T03:11:01;2.07;;;1.97;;
10795;SDS011;5450;42.994;23.372;2023-03-22T03:13:29;2.20;;;2.10;;
10795;SDS011;5450;42.994;23.372;2023-03-22T03:15:56;1.87;;;1.77;;
10795;SDS011;5450;42.994;23.372;2023-03-22T03:18:27;2.90;;;2.70;;
10795;SDS011;5450;42.994;23.372;2023-03-22T03:21:12;2.57;;;2.47;;
10795;SDS011;5450;42.994;23.372;2023-03-22T03:23:50;2.50;;;2.40;;
10795;SDS011;5450;42.994;23.372;2023-03-22T03:29:31;3.20;;;2.90;;
10795;SDS011;5450;42.994;23.372;2023-03-22T03:32:05;2.50;;;2.40;;
10795;SDS011;5450;42.994;23.372;2023-03-22T03:34:44;2.90;;;2.80;;
10795;SDS011;5450;42.994;23.372;2023-03-22T03:37:16;3.43;;;3.13;;
10795;SDS011;5450;42.994;23.372;2023-03-22T03:39:47;3.10;;;2.90;;
10795;SDS011;5450;42.994;23.372;2023-03-22T03:42:21;3.43;;;3.17;;
10795;SDS011;5450;42.994;23.372;2023-03-22T03:44:55;2.90;;;2.70;;
10795;SDS011;5450;42.994;23.372;2023-03-22T03:47:24;3.33;;;2.90;;
10795;SDS011;5450;42.994;23.372;2023-03-22T03:49:54;3.13;;;2.93;;
10795;SDS011;5450;42.994;23.372;2023-03-22T03:52:21;2.97;;;2.80;;
10795;SDS011;5450;42.994;23.372;2023-03-22T03:54:50;3.47;;;3.17;;
10795;SDS011;5450;42.994;23.372;2023-03-22T03:57:22;4.07;;;3.20;;
10795;SDS011;5450;42.994;23.372;2023-03-22T03:59:56;3.40;;;3.20;;
10795;SDS011;5450;42.994;23.372;2023-03-22T04:09:23;3.40;;;3.20;;
10795;SDS011;5450;42.994;23.372;2023-03-22T04:11:54;3.77;;;3.53;;
10795;SDS011;5450;42.994;23.372;2023-03-22T04:15:02;3.70;;;3.50;;
10795;SDS011;5450;42.994;23.372;2023-03-22T04:17:32;4.20;;;4.00;;
10795;SDS011;5450;42.994;23.372;2023-03-22T04:20:05;3.77;;;3.57;;
10795;SDS011;5450;42.994;23.372;2023-03-22T04:22:40;3.57;;;3.37;;
10795;SDS011;5450;42.994;23.372;2023-03-22T04:25:08;3.30;;;3.10;;
10795;SDS011;5450;42.994;23.372;2023-03-22T04:27:42;3.67;;;3.47;;
10795;SDS011;5450;42.994;23.372;2023-03-22T04:30:17;3.50;;;3.30;;
10795;SDS011;5450;42.994;23.372;2023-03-22T04:33:00;3.60;;;3.30;;
10795;SDS011;5450;42.994;23.372;2023-03-22T04:35:30;3.93;;;3.67;;
10795;SDS011;5450;42.994;23.372;2023-03-22T04:37:58;4.47;;;4.17;;
10795;SDS011;5450;42.994;23.372;2023-03-22T04:40:26;3.93;;;3.53;;
10795;SDS011;5450;42.994;23.372;2023-03-22T04:43:01;4.13;;;3.73;;
10795;SDS011;5450;42.994;23.372;2023-03-22T04:45:35;3.90;;;3.70;;
10795;SDS011;5450;42.994;23.372;2023-03-22T04:48:05;4.07;;;3.87;;
10795;SDS011;5450;42.994;23.372;2023-03-22T04:50:37;4.07;;;3.87;;
10795;SDS011;5450;42.994;23.372;2023-03-22T04:56:05;4.00;;;3.63;;
10795;SDS011;5450;42.994;23.372;2023-03-22T04:58:34;3.47;;;3.27;;
10795;SDS011;5450;42.994;23.372;2023-03-22T05:01:09;3.43;;;3.10;;
10795;SDS011;5450;42.994;23.372;2023-03-22T05:03:37;3.13;;;3.00;;
10795;SDS011;5450;42.994;23.372;2023-03-22T05:06:06;2.87;;;2.77;;
10795;SDS011;5450;42.994;23.372;2023-03-22T05:08:37;2.57;;;2.47;;
10795;SDS011;5450;42.994;23.372;2023-03-22T05:11:05;3.47;;;3.17;;
10795;SDS011;5450;42.994;23.372;2023-03-22T05:13:34;3.67;;;3.47;;
10795;SDS011;5450;42.994;23.372;2023-03-22T05:16:02;3.27;;;3.00;;
10795;SDS011;5450;42.994;23.372;2023-03-22T05:18:35;3.23;;;3.10;;
10795;SDS011;5450;42.994;23.372;2023-03-22T05:21:08;3.43;;;3.23;;
10795;SDS011;5450;42.994;23.372;2023-03-22T05:23:39;3.70;;;3.50;;
10795;SDS011;5450;42.994;23.372;2023-03-22T05:26:07;3.53;;;3.23;;
10795;SDS011;5450;42.994;23.372;2023-03-22T05:28:44;3.70;;;3.40;;
10795;SDS011;5450;42.994;23.372;2023-03-22T05:31:11;3.87;;;3.67;;
10795;SDS011;5450;42.994;23.372;2023-03-22T05:33:40;4.23;;;3.93;;
10795;SDS011;5450;42.994;23.372;2023-03-22T05:36:08;4.57;;;4.17;;
10795;SDS011;5450;42.994;23.372;2023-03-22T05:41:32;5.57;;;5.03;;
10795;SDS011;5450;42.994;23.372;2023-03-22T05:44:03;4.73;;;4.40;;
10795;SDS011;5450;42.994;23.372;2023-03-22T05:47:32;4.97;;;4.60;;
10795;SDS011;5450;42.994;23.372;2023-03-22T05:49:53;4.57;;;4.37;;
10795;SDS011;5450;42.994;23.372;2023-03-22T05:52:25;6.07;;;5.57;;
10795;SDS011;5450;42.994;23.372;2023-03-22T05:55:05;4.97;;;4.57;;
10795;SDS011;5450;42.994;23.372;2023-03-22T06:01:03;4.40;;;4.10;;
10795;SDS011;5450;42.994;23.372;2023-03-22T06:06:54;4.70;;;4.40;;
10795;SDS011;5450;42.994;23.372;2023-03-22T06:12:26;4.57;;;4.17;;
10795;SDS011;5450;42.994;23.372;2023-03-22T06:14:53;4.00;;;3.70;;
10795;SDS011;5450;42.994;23.372;2023-03-22T06:17:22;4.37;;;4.07;;
10795;SDS011;5450;42.994;23.372;2023-03-22T06:19:51;4.50;;;4.20;;
10795;SDS011;5450;42.994;23.372;2023-03-22T06:31:24;4.50;;;3.60;;
10795;SDS011;5450;42.994;23.372;2023-03-22T06:33:57;3.87;;;3.60;;
10795;SDS011;5450;42.994;23.372;2023-03-22T06:36:24;4.00;;;3.70;;
10795;SDS011;5450;42.994;23.372;2023-03-22T06:38:52;4.23;;;3.33;;
10795;SDS011;5450;42.994;23.372;2023-03-22T06:41:19;3.87;;;3.57;;
10795;SDS011;5450;42.994;23.372;2023-03-22T06:43:47;3.37;;;3.17;;
10795;SDS011;5450;42.994;23.372;2023-03-22T06:49:38;3.67;;;3.47;;
10795;SDS011;5450;42.994;23.372;2023-03-22T06:52:05;3.60;;;3.40;;
10795;SDS011;5450;42.994;23.372;2023-03-22T06:54:50;3.80;;;3.60;;
10795;SDS011;5450;42.994;23.372;2023-03-22T07:00:22;4.47;;;4.10;;
10795;SDS011;5450;42.994;23.372;2023-03-22T07:02:53;5.13;;;4.83;;
10795;SDS011;5450;42.994;23.372;2023-03-22T07:05:34;4.30;;;4.00;;
10795;SDS011;5450;42.994;23.372;2023-03-22T07:08:04;3.90;;;3.60;;
10795;SDS011;5450;42.994;23.372;2023-03-22T07:10:33;3.90;;;3.70;;
10795;SDS011;5450;42.994;23.372;2023-03-22T07:13:02;3.33;;;3.13;;
10795;SDS011;5450;42.994;23.372;2023-03-22T07:15:35;3.90;;;3.70;;
10795;SDS011;5450;42.994;23.372;2023-03-22T07:18:04;3.47;;;3.27;;
10795;SDS011;5450;42.994;23.372;2023-03-22T07:20:33;4.90;;;4.50;;
10795;SDS011;5450;42.994;23.372;2023-03-22T07:23:06;3.60;;;3.40;;
10795;SDS011;5450;42.994;23.372;2023-03-22T07:25:45;4.77;;;3.50;;
10795;SDS011;5450;42.994;23.372;2023-03-22T07:28:15;3.47;;;3.27;;
10795;SDS011;5450;42.994;23.372;2023-03-22T07:30:45;3.50;;;3.30;;
10795;SDS011;5450;42.994;23.372;2023-03-22T07:33:14;3.20;;;3.10;;
10795;SDS011;5450;42.994;23.372;2023-03-22T07:38:33;3.50;;;3.30;;
10795;SDS011;5450;42.994;23.372;2023-03-22T07:44:08;3.27;;;3.07;;
10795;SDS011;5450;42.994;23.372;2023-03-22T07:49:41;3.83;;;3.63;;
10795;SDS011;5450;42.994;23.372;2023-03-22T07:52:08;3.83;;;3.50;;
10795;SDS011;5450;42.994;23.372;2023-03-22T07:54:40;3.33;;;3.13;;
10795;SDS011;5450;42.994;23.372;2023-03-22T08:00:11;3.57;;;3.37;;
10795;SDS011;5450;42.994;23.372;2023-03-22T08:02:46;3.73;;;3.53;;
10795;SDS011;5450;42.994;23.372;2023-03-22T08:11:26;4.03;;;3.83;;
10795;SDS011;5450;42.994;23.372;2023-03-22T08:14:02;4.10;;;3.80;;
10795;SDS011;5450;42.994;23.372;2023-03-22T08:27:09;4.70;;;4.40;;
10795;SDS011;5450;42.994;23.372;2023-03-22T08:29:45;4.30;;;4.00;;
10795;SDS011;5450;42.994;23.372;2023-03-22T08:32:15;4.73;;;4.43;;
10795;SDS011;5450;42.994;23.372;2023-03-22T08:44:58;4.30;;;4.00;;
10795;SDS011;5450;42.994;23.372;2023-03-22T08:51:06;4.17;;;3.87;;
10795;SDS011;5450;42.994;23.372;2023-03-22T08:56:57;4.03;;;3.70;;
10795;SDS011;5450;42.994;23.372;2023-03-22T09:13:57;19.97;;;15.87;;
10795;SDS011;5450;42.994;23.372;2023-03-22T10:44:35;4.77;;;4.47;;
10795;SDS011;5450;42.994;23.372;2023-03-22T10:54:15;5.10;;;4.70;;
10795;SDS011;5450;42.994;23.372;2023-03-22T10:57:28;4.47;;;4.27;;
10795;SDS011;5450;42.994;23.372;2023-03-22T11:00:34;4.70;;;4.40;;
10795;SDS011;5450;42.994;23.372;2023-03-22T11:18:05;3.83;;;3.63;;
10795;SDS011;5450;42.994;23.372;2023-03-22T12:07:23;7.73;;;7.13;;
10795;SDS011;5450;42.994;23.372;2023-03-22T12:20:35;7.43;;;6.83;;
10795;SDS011;5450;42.994;23.372;2023-03-22T12:25:12;5.63;;;5.23;;
10795;SDS011;5450;42.994;23.372;2023-03-22T22:48:45;23.60;;;16.07;;
10795;SDS011;5450;42.994;23.372;2023-03-22T22:57:35;25.83;;;15.80;;
10795;SDS011;5450;42.994;23.372;2023-03-22T22:58:35;30.27;;;17.03;;
10795;SDS011;5450;42.994;23.372;2023-03-22T23:09:02;28.20;;;17.33;;
10795;SDS011;5450;42.994;23.372;2023-03-22T23:21:15;15.03;;;11.97;;
10795;SDS011;5450;42.994;23.372;2023-03-22T23:22:40;11.47;;;10.20;;
